createdAt,value
2019-05-20T15:39:27.272Z,21.48
2019-05-20T15:41:57.533Z,22.15
2019-05-20T15:44:27.494Z,23.47
2019-05-20T15:48:48.060Z,22.73
2019-05-20T15:51:18.178Z,23.42
2019-05-20T15:53:48.172Z,21.02
2019-05-20T15:56:22.212Z,20.75
2019-05-20T15:58:52.251Z,16.62
2019-05-20T16:01:22.263Z,18.70
2019-05-20T16:03:55.260Z,64.60
2019-05-20T16:06:25.254Z,65.78
2019-05-20T16:08:55.272Z,72.08
2019-05-20T16:11:25.460Z,75.97
2019-05-20T16:13:55.513Z,71.02
2019-05-20T16:16:25.529Z,94.58
2019-05-20T16:18:55.522Z,79.92
2019-05-20T16:21:25.520Z,74.25
2019-05-20T16:23:55.508Z,67.70
2019-05-20T16:26:29.876Z,75.72
2019-05-20T16:28:58.272Z,75.87
2019-05-20T16:31:28.278Z,80.25
2019-05-20T16:33:59.607Z,69.50
2019-05-20T16:36:29.786Z,72.27
2019-05-20T16:39:00.930Z,70.32
2019-05-20T16:41:32.529Z,62.65
2019-05-20T16:44:02.555Z,70.95
2019-05-20T16:46:32.607Z,61.58
2019-05-20T16:49:02.702Z,59.63
2019-05-20T16:51:32.756Z,56.13
2019-05-20T16:54:03.735Z,55.05
2019-05-20T16:56:34.717Z,59.40
2019-05-20T16:59:04.715Z,52.48
2019-05-20T17:01:46.001Z,52.80
2019-05-20T17:04:06.552Z,52.95
2019-05-20T17:06:36.969Z,56.98
2019-05-20T17:09:07.035Z,54.50
2019-05-20T17:11:37.113Z,53.33
2019-05-20T17:14:10.408Z,61.60
2019-05-20T17:16:38.883Z,51.30
2019-05-20T17:19:11.219Z,58.50
2019-05-20T17:21:41.229Z,51.53
2019-05-20T17:24:11.232Z,52.05
2019-05-20T17:26:41.223Z,57.65
2019-05-20T17:29:11.248Z,54.00
2019-05-20T17:31:41.242Z,49.53
2019-05-20T17:34:11.253Z,55.55
2019-05-20T17:36:41.265Z,58.83
2019-05-20T17:39:11.323Z,63.05
2019-05-20T17:41:41.410Z,58.63
2019-05-20T17:44:11.411Z,59.03
2019-05-20T17:46:41.474Z,63.38
2019-05-20T17:49:11.511Z,61.63
2019-05-20T17:51:43.435Z,60.00
2019-05-20T17:54:13.243Z,66.47
2019-05-20T17:56:43.260Z,67.30
2019-05-20T17:59:13.257Z,65.42
2019-05-20T18:01:43.313Z,62.65
2019-05-20T18:04:13.300Z,74.70
2019-05-20T18:06:43.305Z,62.38
2019-05-20T18:09:13.779Z,60.63
2019-05-20T18:11:43.784Z,63.68
2019-05-20T18:14:13.789Z,67.32
2019-05-20T18:16:43.841Z,66.87
2019-05-20T18:19:13.856Z,69.77
2019-05-20T18:21:45.484Z,69.67
2019-05-20T18:24:15.495Z,72.30
2019-05-20T18:26:45.493Z,67.92
2019-05-20T18:29:15.497Z,69.85
2019-05-20T18:31:45.489Z,72.58
2019-05-20T18:34:15.487Z,22.42
2019-05-20T18:36:45.483Z,23.32
2019-05-20T18:39:15.475Z,21.25
2019-05-20T18:41:45.474Z,17.23
2019-05-20T18:44:15.465Z,18.17
2019-05-20T18:46:45.499Z,18.95
2019-05-20T18:49:15.492Z,18.42
2019-05-20T18:51:45.490Z,16.55
2019-05-20T18:54:15.492Z,16.87
2019-05-20T18:56:45.579Z,16.25
2019-05-20T18:59:15.561Z,14.98
2019-05-20T19:02:02.186Z,17.55
2019-05-20T19:04:17.265Z,16.90
2019-05-20T19:06:47.265Z,21.30
2019-05-20T19:09:17.268Z,20.35
2019-05-20T19:11:47.329Z,17.80
